Decoded Metar for KRBG (ROSEBURG in OR, USA) (IATA:RBG) | Meteo·Mobile Aviation Weather
aviador You're here:

KRBG Decoded Metar

ROSEBURG in OR, USA
Report Time2018-10-23 00:53:00
UTC Time2018-10-23 01:50:14
Flight Rules vfr VFR
Wind310° at 03 kt
W.Decomp.*RWY 34: 2.0 kt HW 2.2 kt LCW
W.Rank310° ranks 13
Current wind is below 310° avg. (5.8)
Visibility9999 m
Phenomena:N/A
Clouds:N/A
Expected CloudBase > 6,000 ft AGL from Temp-Dew spread
CeilingNone
Temp23°C (ISA +9)
Dew Point08°C (38% RH)
AAT21.4°C
QNH1010 hPa
Density Alt1,801 ft
Elevation505 ft
Report Wrong Elevation
Raw Report
KRBG 230053Z AUTO 31003KT 10SM CLR 23/08 A2983 RMK AO2 SLP101
T02330078=

Extra information for KRBG:More info

Metar Taf Metar & Taf Last 4 Metars F.Rules Stats Wind Profile Meteogram Temp Stats Airport Information Weather charts Add Link Nearby VenuesMetar ALERT Operation Metar Decoded Social comments

AIRNAV info for KRBG